createdAt,value
2022-07-28T00:00:03.371Z,14.17
2022-07-28T00:01:03.582Z,14.16
2022-07-28T00:02:03.962Z,14.14
2022-07-28T00:03:04.359Z,14.14
2022-07-28T00:04:03.872Z,14.12
2022-07-28T00:05:04.170Z,14.10
2022-07-28T00:06:03.867Z,14.07
2022-07-28T00:07:03.256Z,14.07
2022-07-28T00:08:03.558Z,14.02
2022-07-28T00:09:03.260Z,13.99
2022-07-28T00:10:03.726Z,14.01
2022-07-28T00:11:03.352Z,14.01
2022-07-28T00:12:03.590Z,13.99
2022-07-28T00:13:06.833Z,13.99
2022-07-28T00:14:03.833Z,13.98
2022-07-28T00:15:04.202Z,14.01
2022-07-28T00:16:03.861Z,13.98
2022-07-28T00:17:03.283Z,14.02
2022-07-28T00:18:03.588Z,13.96
2022-07-28T00:19:03.237Z,13.96
2022-07-28T00:20:03.565Z,13.92
2022-07-28T00:21:03.472Z,13.91
2022-07-28T00:22:03.700Z,13.88
2022-07-28T00:23:04.045Z,13.88
2022-07-28T00:24:03.654Z,13.88
2022-07-28T00:25:03.956Z,13.88
2022-07-28T00:26:03.613Z,13.89
2022-07-28T00:27:04.089Z,13.89
2022-07-28T00:28:03.936Z,13.89
2022-07-28T00:29:03.812Z,13.89
2022-07-28T00:30:04.065Z,13.88
2022-07-28T00:31:05.791Z,13.88
2022-07-28T00:32:03.631Z,13.87
2022-07-28T00:33:04.712Z,13.88
2022-07-28T00:34:03.360Z,13.91
2022-07-28T00:35:03.621Z,13.89
2022-07-28T00:36:03.482Z,13.91
2022-07-28T00:37:06.758Z,13.95
2022-07-28T00:38:03.601Z,13.94
2022-07-28T00:39:04.013Z,13.96
2022-07-28T00:40:03.593Z,13.94
2022-07-28T00:41:03.992Z,13.94
2022-07-28T00:42:03.331Z,13.94
2022-07-28T00:43:03.566Z,13.94
2022-07-28T00:44:03.168Z,13.95
2022-07-28T00:45:03.136Z,13.92
2022-07-28T00:46:03.278Z,13.92
2022-07-28T00:47:03.689Z,13.94
2022-07-28T00:48:03.483Z,13.95
2022-07-28T00:49:03.966Z,13.95
2022-07-28T00:50:03.594Z,13.92
2022-07-28T00:51:03.838Z,13.96
2022-07-28T00:52:04.159Z,13.94
2022-07-28T00:53:04.403Z,13.98
2022-07-28T00:54:04.448Z,13.96
2022-07-28T00:55:04.015Z,13.98
2022-07-28T00:56:06.568Z,13.98
2022-07-28T00:57:03.423Z,13.96
2022-07-28T00:58:03.629Z,13.98
2022-07-28T00:59:03.887Z,13.94
2022-07-28T01:00:03.557Z,13.92
2022-07-28T01:01:04.151Z,13.94
2022-07-28T01:02:03.993Z,13.94
2022-07-28T01:03:03.828Z,13.94
2022-07-28T01:04:03.889Z,13.92
2022-07-28T01:05:04.215Z,13.94
2022-07-28T01:06:03.808Z,13.92
2022-07-28T01:07:04.110Z,13.95
2022-07-28T01:08:03.879Z,13.92
2022-07-28T01:09:04.460Z,13.89
2022-07-28T01:10:04.271Z,13.83
2022-07-28T01:11:03.823Z,13.84
2022-07-28T01:12:03.856Z,13.88
2022-07-28T01:13:03.479Z,13.89
2022-07-28T01:14:03.876Z,13.92
2022-07-28T01:15:03.933Z,13.94
2022-07-28T01:16:03.696Z,13.95
2022-07-28T01:17:04.224Z,13.96
2022-07-28T01:18:03.810Z,13.92
2022-07-28T01:19:04.312Z,13.94
2022-07-28T01:20:03.847Z,13.92
2022-07-28T01:21:04.058Z,13.91
2022-07-28T01:22:04.294Z,13.89
2022-07-28T01:23:03.807Z,13.88
2022-07-28T01:24:03.798Z,13.87
2022-07-28T01:25:04.243Z,13.84
2022-07-28T01:26:03.693Z,13.84
2022-07-28T01:27:03.481Z,13.84
2022-07-28T01:28:03.561Z,13.81
2022-07-28T01:29:03.689Z,13.83
2022-07-28T01:30:03.943Z,13.80
2022-07-28T01:31:04.024Z,13.80
2022-07-28T01:32:04.443Z,13.77
2022-07-28T01:33:04.020Z,13.79
2022-07-28T01:34:04.344Z,13.77
2022-07-28T01:35:04.188Z,13.81
2022-07-28T01:36:03.957Z,13.81
2022-07-28T01:37:04.021Z,13.79
2022-07-28T01:38:03.541Z,13.77
2022-07-28T01:39:04.046Z,13.74
2022-07-28T01:40:03.802Z,13.70
2022-07-28T01:41:04.136Z,13.65
2022-07-28T01:42:03.249Z,13.56
2022-07-28T01:43:03.375Z,13.51
2022-07-28T01:44:03.383Z,13.49
2022-07-28T01:45:03.284Z,13.46
2022-07-28T01:46:03.344Z,13.43
2022-07-28T01:47:03.653Z,13.44
2022-07-28T01:48:03.243Z,13.38
2022-07-28T01:49:03.559Z,13.32
2022-07-28T01:50:03.217Z,13.36
2022-07-28T01:51:03.484Z,13.33
2022-07-28T01:52:03.817Z,13.37
2022-07-28T01:53:03.626Z,13.38
2022-07-28T01:54:03.652Z,13.37
2022-07-28T01:55:03.348Z,13.40
2022-07-28T01:56:03.531Z,13.38
2022-07-28T01:57:03.386Z,13.38
2022-07-28T01:58:03.705Z,13.36
2022-07-28T01:59:03.301Z,13.33
2022-07-28T02:00:03.573Z,13.27
2022-07-28T02:01:03.868Z,13.25
2022-07-28T02:02:04.011Z,13.21
2022-07-28T02:03:04.365Z,13.18
2022-07-28T02:04:04.427Z,13.17
2022-07-28T02:05:04.133Z,13.14
2022-07-28T02:06:04.410Z,13.12
2022-07-28T02:07:03.539Z,13.14
2022-07-28T02:08:03.165Z,13.11
2022-07-28T02:09:03.570Z,13.11
2022-07-28T02:10:03.169Z,13.11
2022-07-28T02:11:03.139Z,13.09
2022-07-28T02:12:04.017Z,13.07
2022-07-28T02:13:04.198Z,13.06
2022-07-28T02:14:03.882Z,13.02
2022-07-28T02:15:04.140Z,13.03
2022-07-28T02:16:04.497Z,13.06
2022-07-28T02:17:03.373Z,13.09
2022-07-28T02:18:03.579Z,13.09
2022-07-28T02:19:03.923Z,13.06
2022-07-28T02:20:03.900Z,13.02
2022-07-28T02:21:03.513Z,13.03
2022-07-28T02:22:03.818Z,13.02
2022-07-28T02:23:03.619Z,12.97
2022-07-28T02:24:03.851Z,12.89
2022-07-28T02:25:03.619Z,12.87
2022-07-28T02:26:03.919Z,12.84
2022-07-28T02:27:04.168Z,12.81
2022-07-28T02:28:03.856Z,12.82
2022-07-28T02:29:03.953Z,12.78
2022-07-28T02:30:03.578Z,12.77
2022-07-28T02:31:03.664Z,12.78
2022-07-28T02:32:03.346Z,12.71
2022-07-28T02:33:03.842Z,12.67
2022-07-28T02:34:03.339Z,12.70
2022-07-28T02:35:03.567Z,12.70
2022-07-28T02:36:03.181Z,12.67
2022-07-28T02:37:03.412Z,12.62
2022-07-28T02:38:03.680Z,12.63
2022-07-28T02:39:04.051Z,12.62
2022-07-28T02:40:03.664Z,12.59
2022-07-28T02:41:03.928Z,12.56
2022-07-28T02:42:03.542Z,12.56
2022-07-28T02:43:03.813Z,12.59
2022-07-28T02:44:03.764Z,12.57
2022-07-28T02:45:04.134Z,12.54
2022-07-28T02:46:03.789Z,12.51
2022-07-28T02:47:03.136Z,12.49
2022-07-28T02:48:03.436Z,12.46
2022-07-28T02:49:03.210Z,12.48
2022-07-28T02:50:03.541Z,12.46
2022-07-28T02:51:03.738Z,12.41
2022-07-28T02:52:03.308Z,12.38
2022-07-28T02:53:14.873Z,12.42
2022-07-28T02:54:03.453Z,12.46
2022-07-28T02:55:03.818Z,12.44
2022-07-28T02:56:03.577Z,12.41
2022-07-28T02:57:03.896Z,12.41
2022-07-28T02:58:05.148Z,12.42
2022-07-28T02:59:04.346Z,12.42
2022-07-28T03:00:03.921Z,12.37
2022-07-28T03:01:04.441Z,12.31
2022-07-28T03:02:03.085Z,12.29
2022-07-28T03:03:03.150Z,12.27
2022-07-28T03:04:03.503Z,12.27
2022-07-28T03:05:03.219Z,12.27
2022-07-28T03:06:03.363Z,12.23
2022-07-28T03:07:03.057Z,12.15
2022-07-28T03:08:02.556Z,12.11
2022-07-28T03:09:03.021Z,12.09
2022-07-28T03:10:02.690Z,12.08
2022-07-28T03:11:03.005Z,12.09
2022-07-28T03:12:03.168Z,12.08
2022-07-28T03:13:03.511Z,12.09
2022-07-28T03:14:03.132Z,12.11
2022-07-28T03:15:03.810Z,12.09
2022-07-28T03:16:03.361Z,12.13
2022-07-28T03:17:02.806Z,12.13
2022-07-28T03:18:02.974Z,12.12
2022-07-28T03:19:02.525Z,12.11
2022-07-28T03:20:02.757Z,12.08
2022-07-28T03:21:02.498Z,12.08
2022-07-28T03:22:02.731Z,12.06
2022-07-28T03:23:02.636Z,12.04
2022-07-28T03:24:02.983Z,11.99
2022-07-28T03:25:02.768Z,11.99
2022-07-28T03:26:02.862Z,12.01
2022-07-28T03:27:03.150Z,12.01
2022-07-28T03:28:03.450Z,11.94
2022-07-28T03:29:03.054Z,11.93
2022-07-28T03:30:04.246Z,11.96
2022-07-28T03:31:03.088Z,11.94
2022-07-28T03:32:03.451Z,11.90
2022-07-28T03:33:03.708Z,11.89
2022-07-28T03:34:03.424Z,11.87
2022-07-28T03:35:03.842Z,11.87
2022-07-28T03:36:03.463Z,11.83
2022-07-28T03:37:03.047Z,11.82
2022-07-28T03:38:02.836Z,11.82
2022-07-28T03:39:03.188Z,11.82
2022-07-28T03:40:02.775Z,11.83
2022-07-28T03:41:03.171Z,11.82
2022-07-28T03:42:03.486Z,11.83
2022-07-28T03:43:03.600Z,11.83
2022-07-28T03:44:03.223Z,11.83
2022-07-28T03:45:03.528Z,11.82
2022-07-28T03:46:03.214Z,11.78
2022-07-28T03:47:03.207Z,11.77
2022-07-28T03:48:03.046Z,11.75
2022-07-28T03:49:03.480Z,11.71
2022-07-28T03:50:03.158Z,11.70
2022-07-28T03:51:03.487Z,11.72
2022-07-28T03:52:02.886Z,11.72
2022-07-28T03:53:03.064Z,11.71
2022-07-28T03:54:02.680Z,11.68
2022-07-28T03:55:03.052Z,11.65
2022-07-28T03:56:02.705Z,11.64
2022-07-28T03:57:03.285Z,11.64
2022-07-28T03:58:03.380Z,11.57
2022-07-28T03:59:03.590Z,11.54
2022-07-28T04:00:09.040Z,11.56
2022-07-28T04:01:03.435Z,11.54
2022-07-28T04:02:04.057Z,11.57
2022-07-28T04:03:03.946Z,11.56
2022-07-28T04:04:03.576Z,11.59
2022-07-28T04:05:03.593Z,11.57
2022-07-28T04:06:03.963Z,11.61
2022-07-28T04:07:03.009Z,11.61
2022-07-28T04:08:03.437Z,11.59
2022-07-28T04:09:03.106Z,11.59
2022-07-28T04:10:03.447Z,11.57
2022-07-28T04:11:02.890Z,11.61
2022-07-28T04:12:03.935Z,11.59
2022-07-28T04:13:03.725Z,11.61
2022-07-28T04:14:04.075Z,11.59
2022-07-28T04:15:03.767Z,11.59
2022-07-28T04:16:03.527Z,11.59
2022-07-28T04:17:03.791Z,11.57
2022-07-28T04:18:03.470Z,11.57
2022-07-28T04:19:03.645Z,11.54
2022-07-28T04:20:03.458Z,11.57
2022-07-28T04:21:03.300Z,11.59
2022-07-28T04:22:02.667Z,11.54
2022-07-28T04:23:03.173Z,11.53
2022-07-28T04:24:02.928Z,11.59
2022-07-28T04:25:02.619Z,11.59
2022-07-28T04:26:03.000Z,11.64
2022-07-28T04:27:03.297Z,11.68
2022-07-28T04:28:02.779Z,11.74
2022-07-28T04:29:03.613Z,11.77
2022-07-28T04:30:02.733Z,11.77
2022-07-28T04:31:03.468Z,11.78
2022-07-28T04:32:03.416Z,11.80
2022-07-28T04:33:03.905Z,11.83
2022-07-28T04:34:03.438Z,11.87
2022-07-28T04:35:03.831Z,11.93
2022-07-28T04:36:03.513Z,11.93
2022-07-28T04:37:03.449Z,11.90
2022-07-28T04:38:03.260Z,11.86
2022-07-28T04:39:03.045Z,11.86
2022-07-28T04:40:03.432Z,11.83
2022-07-28T04:41:03.059Z,11.90
2022-07-28T04:42:03.521Z,11.86
2022-07-28T04:43:04.095Z,11.85
2022-07-28T04:44:03.890Z,11.82
2022-07-28T04:45:03.656Z,11.83
2022-07-28T04:46:04.128Z,11.85
2022-07-28T04:47:02.834Z,11.93
2022-07-28T04:48:02.796Z,11.94
2022-07-28T04:49:03.284Z,11.97
2022-07-28T04:50:03.060Z,11.96
2022-07-28T04:51:02.866Z,12.02
2022-07-28T04:52:02.902Z,12.05
2022-07-28T04:53:03.415Z,12.13
2022-07-28T04:54:03.159Z,12.19
2022-07-28T04:55:03.298Z,12.21
2022-07-28T04:56:03.021Z,12.23
2022-07-28T04:57:03.308Z,12.26
2022-07-28T04:58:03.714Z,12.26
2022-07-28T04:59:03.929Z,12.29
2022-07-28T05:00:03.279Z,12.29
2022-07-28T05:01:03.664Z,12.27
2022-07-28T05:02:02.907Z,12.24
2022-07-28T05:03:02.911Z,12.27
2022-07-28T05:04:02.700Z,12.30
2022-07-28T05:05:02.699Z,12.30
2022-07-28T05:06:02.555Z,12.30
2022-07-28T05:07:07.908Z,12.33
2022-07-28T05:08:03.013Z,12.29
2022-07-28T05:09:03.493Z,12.29
2022-07-28T05:10:03.284Z,12.30
2022-07-28T05:11:03.032Z,12.33
2022-07-28T05:12:02.554Z,12.34
2022-07-28T05:13:03.041Z,12.41
2022-07-28T05:14:02.889Z,12.42
2022-07-28T05:15:02.580Z,12.45
2022-07-28T05:16:03.057Z,12.45
2022-07-28T05:17:02.853Z,12.46
2022-07-28T05:18:03.020Z,12.48
2022-07-28T05:19:02.972Z,12.52
2022-07-28T05:20:03.576Z,12.56
2022-07-28T05:21:02.776Z,12.60
2022-07-28T05:22:03.186Z,12.62
2022-07-28T05:23:03.370Z,12.64
2022-07-28T05:24:03.649Z,12.66
2022-07-28T05:25:03.473Z,12.67
2022-07-28T05:26:03.206Z,12.70
2022-07-28T05:27:02.675Z,12.74
2022-07-28T05:28:02.165Z,12.77
2022-07-28T05:29:02.519Z,12.82
2022-07-28T05:30:02.784Z,12.85
2022-07-28T05:31:02.594Z,12.88
2022-07-28T05:32:08.025Z,12.93
2022-07-28T05:33:03.345Z,12.99
2022-07-28T05:34:03.242Z,13.02
2022-07-28T05:35:02.937Z,13.07
2022-07-28T05:36:03.378Z,13.11
2022-07-28T05:37:02.729Z,13.15
2022-07-28T05:38:03.693Z,13.17
2022-07-28T05:39:02.603Z,13.21
2022-07-28T05:40:02.879Z,13.27
2022-07-28T05:41:02.687Z,13.33
2022-07-28T05:42:03.262Z,13.38
2022-07-28T05:43:02.948Z,13.47
2022-07-28T05:44:03.343Z,13.51
2022-07-28T05:45:03.227Z,13.55
2022-07-28T05:46:03.032Z,13.61
2022-07-28T05:47:03.410Z,13.65
2022-07-28T05:48:03.754Z,13.71
2022-07-28T05:49:03.568Z,13.74
2022-07-28T05:50:03.903Z,13.77
2022-07-28T05:51:03.613Z,13.84
2022-07-28T05:52:03.052Z,13.89
2022-07-28T05:53:03.361Z,13.94
2022-07-28T05:54:03.071Z,14.02
2022-07-28T05:55:02.823Z,14.12
2022-07-28T05:56:03.268Z,14.24
2022-07-28T05:57:02.393Z,14.32
2022-07-28T05:58:02.841Z,14.43
2022-07-28T05:59:02.576Z,14.54
2022-07-28T06:00:02.608Z,14.64
2022-07-28T06:01:03.100Z,14.74
2022-07-28T06:02:04.082Z,14.86
2022-07-28T06:03:03.919Z,14.95
2022-07-28T06:04:25.768Z,15.09
2022-07-28T06:05:04.083Z,15.20
2022-07-28T06:06:14.822Z,15.33
2022-07-28T06:07:03.790Z,15.48
2022-07-28T06:08:03.922Z,15.60
2022-07-28T06:09:03.708Z,15.70
2022-07-28T06:10:03.457Z,15.76
2022-07-28T06:11:03.523Z,15.88
2022-07-28T06:12:04.057Z,15.96
2022-07-28T06:13:03.853Z,16.07
2022-07-28T06:14:03.680Z,16.16
2022-07-28T06:15:04.204Z,16.30
2022-07-28T06:16:03.844Z,16.40
2022-07-28T06:17:03.643Z,16.52
2022-07-28T06:18:03.635Z,16.62
2022-07-28T06:19:03.727Z,16.73
2022-07-28T06:20:03.573Z,16.81
2022-07-28T06:21:03.418Z,16.95
2022-07-28T06:22:03.457Z,16.99
2022-07-28T06:23:03.885Z,17.10
2022-07-28T06:24:03.765Z,17.17
2022-07-28T06:25:03.523Z,17.26
2022-07-28T06:26:04.062Z,17.33
2022-07-28T06:27:04.285Z,17.41
2022-07-28T06:28:03.300Z,17.51
2022-07-28T06:29:03.974Z,17.64
2022-07-28T06:30:04.415Z,17.70
2022-07-28T06:31:03.851Z,17.81
2022-07-28T06:32:04.438Z,17.89
2022-07-28T06:33:04.546Z,18.00
2022-07-28T06:34:04.075Z,18.06
2022-07-28T06:35:04.056Z,18.13
2022-07-28T06:36:04.590Z,18.25
2022-07-28T06:37:04.195Z,18.36
2022-07-28T06:38:04.028Z,18.46
2022-07-28T06:39:04.188Z,18.64
2022-07-28T06:40:04.056Z,18.73
2022-07-28T06:41:04.267Z,18.82
2022-07-28T06:42:03.778Z,18.84
2022-07-28T06:43:03.589Z,18.92
2022-07-28T06:44:03.383Z,19.01
2022-07-28T06:45:03.510Z,19.14
2022-07-28T06:46:03.352Z,19.24
2022-07-28T06:47:03.984Z,19.35
2022-07-28T06:48:03.516Z,19.43
2022-07-28T06:49:04.058Z,19.53
2022-07-28T06:50:03.998Z,19.58
2022-07-28T06:51:03.641Z,19.69
2022-07-28T06:52:04.159Z,19.84
2022-07-28T06:53:04.294Z,19.95
2022-07-28T06:54:07.970Z,20.09
2022-07-28T06:55:03.874Z,20.24
2022-07-28T06:56:04.297Z,20.35
2022-07-28T06:57:04.134Z,20.43
2022-07-28T06:58:04.066Z,20.53
2022-07-28T06:59:04.554Z,20.62
2022-07-28T07:00:04.397Z,20.74
2022-07-28T07:01:04.458Z,20.80
2022-07-28T07:02:03.904Z,20.83
2022-07-28T07:03:03.617Z,20.87
2022-07-28T07:04:03.562Z,20.91
2022-07-28T07:05:03.479Z,20.93
2022-07-28T07:06:03.872Z,20.90
2022-07-28T07:07:04.371Z,21.02
2022-07-28T07:08:04.196Z,21.08
2022-07-28T07:09:03.978Z,21.11
2022-07-28T07:10:04.346Z,21.17
2022-07-28T07:11:04.172Z,21.27
2022-07-28T07:12:03.687Z,21.35
2022-07-28T07:13:03.265Z,21.45
2022-07-28T07:14:03.658Z,21.50
2022-07-28T07:15:03.484Z,21.50
2022-07-28T07:16:03.240Z,21.54
2022-07-28T07:17:04.010Z,21.53
2022-07-28T07:18:03.586Z,21.53
2022-07-28T07:19:06.856Z,21.60
2022-07-28T07:20:03.452Z,21.64
2022-07-28T07:21:03.853Z,21.63
2022-07-28T07:22:02.839Z,21.63
2022-07-28T07:23:03.365Z,21.64
2022-07-28T07:24:02.952Z,21.72
2022-07-28T07:25:03.198Z,21.79
2022-07-28T07:26:03.057Z,21.85
2022-07-28T07:27:03.041Z,21.94
2022-07-28T07:28:03.563Z,22.06
2022-07-28T07:29:03.436Z,22.16
2022-07-28T07:30:03.231Z,22.20
2022-07-28T07:31:03.091Z,22.22
2022-07-28T07:32:08.481Z,22.23
2022-07-28T07:33:03.642Z,22.28
2022-07-28T07:34:03.483Z,22.27
2022-07-28T07:35:03.827Z,22.29
2022-07-28T07:36:03.543Z,22.37
2022-07-28T07:37:03.179Z,22.44
2022-07-28T07:38:03.202Z,22.47
2022-07-28T07:39:03.459Z,22.53
2022-07-28T07:40:03.165Z,22.59
2022-07-28T07:41:03.637Z,22.65
2022-07-28T07:42:03.457Z,22.72
2022-07-28T07:43:03.699Z,22.75
2022-07-28T07:44:03.860Z,22.72
2022-07-28T07:45:04.043Z,22.72
2022-07-28T07:46:04.131Z,22.78
2022-07-28T07:47:04.662Z,22.83
2022-07-28T07:48:04.380Z,22.86
2022-07-28T07:49:04.471Z,22.90
2022-07-28T07:50:04.835Z,22.96
2022-07-28T07:51:04.015Z,23.01
2022-07-28T07:52:03.510Z,23.04
2022-07-28T07:53:03.966Z,23.11
2022-07-28T07:54:04.076Z,23.19
2022-07-28T07:55:03.666Z,23.29
2022-07-28T07:56:04.079Z,23.35
2022-07-28T07:57:03.534Z,23.42
2022-07-28T07:58:03.999Z,23.49
2022-07-28T07:59:03.779Z,23.53
2022-07-28T08:00:03.785Z,23.57
2022-07-28T08:01:03.678Z,23.60
2022-07-28T08:02:03.360Z,23.64
2022-07-28T08:03:03.374Z,23.65
2022-07-28T08:04:03.268Z,23.68
2022-07-28T08:05:03.240Z,23.71
2022-07-28T08:06:03.261Z,23.68
2022-07-28T08:07:02.920Z,23.71
2022-07-28T08:08:02.928Z,23.70
2022-07-28T08:09:02.733Z,23.70
2022-07-28T08:10:02.818Z,23.75
2022-07-28T08:11:02.644Z,23.82
2022-07-28T08:12:02.953Z,23.82
2022-07-28T08:13:03.443Z,23.83
2022-07-28T08:14:03.157Z,23.83
2022-07-28T08:15:02.937Z,23.85
2022-07-28T08:16:03.303Z,23.92
2022-07-28T08:17:02.860Z,24.00
2022-07-28T08:18:02.995Z,24.07
2022-07-28T08:19:02.836Z,24.14
2022-07-28T08:20:03.327Z,24.16
2022-07-28T08:21:03.153Z,24.17
2022-07-28T08:22:02.611Z,24.19
2022-07-28T08:23:02.781Z,24.29
2022-07-28T08:24:02.907Z,24.35
2022-07-28T08:25:02.741Z,24.44
2022-07-28T08:26:02.396Z,24.50
2022-07-28T08:27:02.784Z,24.56
2022-07-28T08:28:02.637Z,24.56
2022-07-28T08:29:02.830Z,24.63
2022-07-28T08:30:02.685Z,24.69
2022-07-28T08:31:03.255Z,24.64
2022-07-28T08:32:03.689Z,24.56
2022-07-28T08:33:03.400Z,24.54
2022-07-28T08:34:03.713Z,24.59
2022-07-28T08:35:30.305Z,24.68
2022-07-28T08:36:03.093Z,24.82
2022-07-28T08:37:02.836Z,24.90
2022-07-28T08:38:02.822Z,24.92
2022-07-28T08:39:02.990Z,25.01
2022-07-28T08:40:03.010Z,25.10
2022-07-28T08:41:02.682Z,25.15
2022-07-28T08:42:03.282Z,25.24
2022-07-28T08:43:03.349Z,25.32
2022-07-28T08:44:03.142Z,25.34
2022-07-28T08:45:03.086Z,25.37
2022-07-28T08:46:03.626Z,25.35
2022-07-28T08:47:03.792Z,25.35
2022-07-28T08:48:11.221Z,25.39
2022-07-28T08:49:04.119Z,25.49
2022-07-28T08:50:03.883Z,25.53
2022-07-28T08:51:03.615Z,25.54
2022-07-28T08:52:03.143Z,25.50
2022-07-28T08:53:02.810Z,25.56
2022-07-28T08:54:03.025Z,25.56
2022-07-28T08:55:02.973Z,25.54
2022-07-28T08:56:02.927Z,25.65
2022-07-28T08:57:03.243Z,25.74
2022-07-28T08:58:02.877Z,25.79
2022-07-28T08:59:03.270Z,25.80
2022-07-28T09:00:03.295Z,25.87
2022-07-28T09:01:03.389Z,25.94
2022-07-28T09:02:03.957Z,26.04
2022-07-28T09:03:03.832Z,26.12
2022-07-28T09:04:03.687Z,26.18
2022-07-28T09:05:04.017Z,26.22
2022-07-28T09:06:03.736Z,26.21
2022-07-28T09:07:03.968Z,26.21
2022-07-28T09:08:04.160Z,26.24
2022-07-28T09:09:03.968Z,26.24
2022-07-28T09:10:04.176Z,26.31
2022-07-28T09:11:03.666Z,26.37
2022-07-28T09:12:03.494Z,26.40
2022-07-28T09:13:03.305Z,26.43
2022-07-28T09:14:03.105Z,26.40
2022-07-28T09:15:03.573Z,26.43
2022-07-28T09:16:03.422Z,26.44
2022-07-28T09:17:05.346Z,26.47
2022-07-28T09:18:03.498Z,26.47
2022-07-28T09:19:03.989Z,26.54
2022-07-28T09:20:08.844Z,26.58
2022-07-28T09:21:03.570Z,26.62
2022-07-28T09:22:03.390Z,26.69
2022-07-28T09:23:03.176Z,26.76
2022-07-28T09:24:03.590Z,26.86
2022-07-28T09:25:03.450Z,26.89
2022-07-28T09:26:05.880Z,26.92
2022-07-28T09:27:03.461Z,26.92
2022-07-28T09:28:03.390Z,26.99
2022-07-28T09:29:03.136Z,27.06
2022-07-28T09:30:03.548Z,27.05
2022-07-28T09:31:03.336Z,27.09
2022-07-28T09:32:03.911Z,27.09
2022-07-28T09:33:04.026Z,27.13
2022-07-28T09:34:03.831Z,27.05
2022-07-28T09:35:03.428Z,26.98
2022-07-28T09:36:03.768Z,26.96
2022-07-28T09:37:04.120Z,27.01
2022-07-28T09:38:04.107Z,27.02
2022-07-28T09:39:04.051Z,27.01
2022-07-28T09:40:04.163Z,27.06
2022-07-28T09:41:04.002Z,27.16
2022-07-28T09:42:04.260Z,27.19
2022-07-28T09:43:03.878Z,27.23
2022-07-28T09:44:04.450Z,27.28
2022-07-28T09:45:21.894Z,27.23
2022-07-28T09:46:04.286Z,27.26
2022-07-28T09:47:04.095Z,27.38
2022-07-28T09:48:03.606Z,27.50
2022-07-28T09:49:03.702Z,27.57
2022-07-28T09:50:03.747Z,27.64
2022-07-28T09:51:03.638Z,27.76
2022-07-28T09:52:03.882Z,27.82
2022-07-28T09:53:03.637Z,27.86
2022-07-28T09:54:03.828Z,27.82
2022-07-28T09:55:03.654Z,27.77
2022-07-28T09:56:04.059Z,27.70
2022-07-28T09:57:04.560Z,27.64
2022-07-28T09:58:04.377Z,27.73
2022-07-28T09:59:04.147Z,27.80
2022-07-28T10:00:04.122Z,27.88
2022-07-28T10:01:04.234Z,27.91
2022-07-28T10:02:03.789Z,27.95
2022-07-28T10:03:03.722Z,28.06
2022-07-28T10:04:03.476Z,28.09
2022-07-28T10:05:03.267Z,28.11
2022-07-28T10:06:03.829Z,28.21
2022-07-28T10:07:03.323Z,28.22
2022-07-28T10:08:02.897Z,28.26
2022-07-28T10:09:03.277Z,28.31
2022-07-28T10:10:03.005Z,28.32
2022-07-28T10:11:02.824Z,28.38
2022-07-28T10:12:04.010Z,28.43
2022-07-28T10:13:03.839Z,28.46
2022-07-28T10:14:03.634Z,28.46
2022-07-28T10:15:03.633Z,28.41
2022-07-28T10:16:03.491Z,28.41
2022-07-28T10:17:06.244Z,28.43
2022-07-28T10:18:03.394Z,28.40
2022-07-28T10:19:03.220Z,28.44
2022-07-28T10:20:03.018Z,28.54
2022-07-28T10:21:03.366Z,28.60
2022-07-28T10:22:03.170Z,28.63
2022-07-28T10:23:03.599Z,28.62
2022-07-28T10:24:03.403Z,28.58
2022-07-28T10:25:03.196Z,28.51
2022-07-28T10:26:03.612Z,28.58
2022-07-28T10:27:03.463Z,28.62
2022-07-28T10:28:03.692Z,28.51
2022-07-28T10:29:04.098Z,28.48
2022-07-28T10:30:03.793Z,28.43
2022-07-28T10:31:03.776Z,28.48
2022-07-28T10:32:03.583Z,28.50
2022-07-28T10:33:04.016Z,28.51
2022-07-28T10:34:04.017Z,28.51
2022-07-28T10:35:03.832Z,28.56
2022-07-28T10:36:04.180Z,28.58
2022-07-28T10:37:03.888Z,28.51
2022-07-28T10:38:03.393Z,28.41
2022-07-28T10:39:03.372Z,28.36
2022-07-28T10:40:07.811Z,28.43
2022-07-28T10:41:03.119Z,28.43
2022-07-28T10:42:03.447Z,28.47
2022-07-28T10:43:03.255Z,28.47
2022-07-28T10:44:03.322Z,28.50
2022-07-28T10:45:03.559Z,28.44
2022-07-28T10:46:05.979Z,28.40
2022-07-28T10:47:03.567Z,28.44
2022-07-28T10:48:03.985Z,28.47
2022-07-28T10:49:03.974Z,28.46
2022-07-28T10:50:03.648Z,28.35
2022-07-28T10:51:03.569Z,28.40
2022-07-28T10:52:06.657Z,28.47
2022-07-28T10:53:04.235Z,28.65
2022-07-28T10:54:04.157Z,28.80
2022-07-28T10:55:03.599Z,28.82
2022-07-28T10:56:04.068Z,28.90
2022-07-28T10:57:04.836Z,28.97
2022-07-28T10:58:11.472Z,28.96
2022-07-28T10:59:05.000Z,29.00
2022-07-28T11:00:12.705Z,28.90
2022-07-28T11:01:06.260Z,28.84
2022-07-28T11:02:03.353Z,28.82
2022-07-28T11:03:13.515Z,28.87
2022-07-28T11:04:02.400Z,28.91
2022-07-28T11:05:02.876Z,29.01
2022-07-28T11:06:02.600Z,29.01
2022-07-28T11:07:02.970Z,29.06
2022-07-28T11:08:03.492Z,28.95
2022-07-28T11:09:03.391Z,28.96
2022-07-28T11:10:03.535Z,29.06
2022-07-28T11:11:09.127Z,29.16
2022-07-28T11:12:03.054Z,29.18
2022-07-28T11:13:04.004Z,29.28
2022-07-28T11:14:03.057Z,29.34
2022-07-28T11:15:15.802Z,29.34
2022-07-28T11:16:03.228Z,29.35
2022-07-28T11:17:03.755Z,29.40
2022-07-28T11:18:03.111Z,29.38
2022-07-28T11:19:04.655Z,29.35
2022-07-28T11:20:30.176Z,29.34
2022-07-28T11:21:03.134Z,29.38
2022-07-28T11:22:02.977Z,29.44
2022-07-28T11:23:03.303Z,29.43
2022-07-28T11:24:03.056Z,29.41
2022-07-28T11:25:17.998Z,29.50
2022-07-28T11:26:03.136Z,29.59
2022-07-28T11:27:04.265Z,29.62
2022-07-28T11:28:03.372Z,29.56
2022-07-28T11:29:03.746Z,29.68
2022-07-28T11:30:03.579Z,29.86
2022-07-28T11:31:03.511Z,30.00
2022-07-28T11:32:03.281Z,30.00
2022-07-28T11:33:03.577Z,29.94
2022-07-28T11:34:03.244Z,29.89
2022-07-28T11:35:03.774Z,29.92
2022-07-28T11:36:03.481Z,29.93
2022-07-28T11:37:03.789Z,29.92
2022-07-28T11:38:03.716Z,29.90
2022-07-28T11:39:02.885Z,29.99
2022-07-28T11:40:03.145Z,29.99
2022-07-28T11:41:03.080Z,30.12
2022-07-28T11:42:03.173Z,30.30
2022-07-28T11:43:03.684Z,30.36
2022-07-28T11:44:03.534Z,30.43
2022-07-28T11:45:03.600Z,30.37
2022-07-28T11:46:03.398Z,30.29
2022-07-28T11:47:03.411Z,30.24
2022-07-28T11:48:03.917Z,30.24
2022-07-28T11:49:03.696Z,30.29
2022-07-28T11:50:03.520Z,30.34
2022-07-28T11:51:04.015Z,30.36
2022-07-28T11:52:03.835Z,30.31
2022-07-28T11:53:04.301Z,30.14
2022-07-28T11:54:04.341Z,30.03
2022-07-28T11:55:03.902Z,30.08
2022-07-28T11:56:04.219Z,30.09
2022-07-28T11:57:03.917Z,30.15
2022-07-28T11:58:02.983Z,30.24
2022-07-28T11:59:03.523Z,30.31
2022-07-28T12:00:03.480Z,30.46
2022-07-28T12:01:03.276Z,30.59
2022-07-28T12:02:03.020Z,30.69
2022-07-28T12:03:03.884Z,30.80
2022-07-28T12:04:03.442Z,30.91
2022-07-28T12:05:04.003Z,31.04
2022-07-28T12:06:03.885Z,31.13
2022-07-28T12:07:03.679Z,31.20
2022-07-28T12:08:04.052Z,31.30
2022-07-28T12:09:03.930Z,31.35
2022-07-28T12:10:03.510Z,31.38
2022-07-28T12:11:03.716Z,31.48
2022-07-28T12:12:04.186Z,31.64
2022-07-28T12:13:03.019Z,31.75
2022-07-28T12:14:03.476Z,31.85
2022-07-28T12:15:06.842Z,31.85
2022-07-28T12:16:03.687Z,31.93
2022-07-28T12:17:03.401Z,32.05
2022-07-28T12:18:03.838Z,32.14
2022-07-28T12:19:03.429Z,32.25
2022-07-28T12:20:03.951Z,32.36
2022-07-28T12:21:05.383Z,32.40
2022-07-28T12:22:03.784Z,32.36
2022-07-28T12:23:04.115Z,32.29
2022-07-28T12:24:04.002Z,32.35
2022-07-28T12:25:03.684Z,32.44
2022-07-28T12:26:04.229Z,32.55
2022-07-28T12:27:04.103Z,32.71
2022-07-28T12:28:04.204Z,32.69
2022-07-28T12:29:04.173Z,32.59
2022-07-28T12:30:04.528Z,32.54
2022-07-28T12:31:04.399Z,32.57
2022-07-28T12:32:04.283Z,32.64
2022-07-28T12:33:04.498Z,32.73
2022-07-28T12:34:04.500Z,32.80
2022-07-28T12:35:04.403Z,32.79
2022-07-28T12:36:04.196Z,32.81
2022-07-28T12:37:04.643Z,32.71
2022-07-28T12:38:03.542Z,32.61
2022-07-28T12:39:03.584Z,32.47
2022-07-28T12:40:03.961Z,32.30
2022-07-28T12:41:04.090Z,32.06
2022-07-28T12:42:03.865Z,32.02
2022-07-28T12:43:03.535Z,31.92
2022-07-28T12:44:05.794Z,31.85
2022-07-28T12:45:04.032Z,31.79
2022-07-28T12:46:03.928Z,31.65
2022-07-28T12:47:04.165Z,31.60
2022-07-28T12:48:04.249Z,31.62
2022-07-28T12:49:04.219Z,31.64
2022-07-28T12:50:07.046Z,31.55
2022-07-28T12:51:03.908Z,31.58
2022-07-28T12:52:04.531Z,31.57